Time;durP1;ratioP1;P1;durP2;ratioP2;P2;SDS_P1;SDS_P2;PMS_P1;PMS_P2;Temp;Humidity;BMP_temperature;BMP_pressure;BME280_temperature;BME280_humidity;BME280_pressure;Samples;Min_cycle;Max_cycle;Signal;HPM_P1;HPM_P2
2022/02/03 00:06:00;;;;;;;2.60;1.10;;;;;;;;;;5078555;28;20088;-79
2022/02/03 00:08:52;;;;;;;3.50;1.27;;;;;;;;;;5083555;28;20110;-78
2022/02/03 00:16:05;;;;;;;;;;;;;;;;;;5100502;28;20024;-75
2022/02/03 00:22:48;;;;;;;5.43;1.07;;;;;;;;;;5084120;28;20031;-77
2022/02/03 00:25:21;;;;;;;2.77;1.10;;;;;;;;;;5082838;28;20028;-79
2022/02/03 00:28:26;;;;;;;5.23;1.63;;;;;;;;;;5076208;28;20582;-72
2022/02/03 00:33:38;;;;;;;4.83;1.30;;;;;;;;;;5083158;28;20024;-71
2022/02/03 00:36:17;;;;;;;5.50;1.23;;;;;;;;;;5072187;28;20060;-70
2022/02/03 00:50:27;;;;;;;4.10;1.50;;;;;;;;;;5083693;28;20039;-70
2022/02/03 00:52:38;;;;;;;3.80;1.10;;;;;;;;;;5075899;28;20391;-70
2022/02/03 00:55:05;;;;;;;4.03;1.40;;;;;;;;;;5079862;28;20028;-71
2022/02/03 00:57:37;;;;;;;7.23;1.20;;;;;;;;;;5079365;28;20024;-72
2022/02/03 01:00:11;;;;;;;11.17;1.60;;;;;;;;;;5079294;28;20036;-70
2022/02/03 01:02:49;;;;;;;6.83;1.23;;;;;;;;;;5080868;28;20024;-72
2022/02/03 01:05:15;;;;;;;6.87;1.63;;;;;;;;;;5075681;28;20083;-72
2022/02/03 01:07:45;;;;;;;4.83;1.07;;;;;;;;;;5081897;28;20024;-70
2022/02/03 01:10:17;;;;;;;9.13;1.80;;;;;;;;;;5070810;28;20028;-70
2022/02/03 01:37:35;;;;;;;9.97;1.73;;;;;;;;;;5083329;28;20749;-73
2022/02/03 01:43:20;;;;;;;5.00;1.30;;;;;;;;;;5076925;28;20062;-72
2022/02/03 01:53:41;;;;;;;4.10;2.00;;;;;;;;;;5068280;28;20400;-73
2022/02/03 01:56:12;;;;;;;6.80;1.80;;;;;;;;;;5079004;28;20036;-73
2022/02/03 01:58:47;;;;;;;10.57;1.70;;;;;;;;;;5081494;28;20123;-74
2022/02/03 02:01:13;;;;;;;7.53;2.00;;;;;;;;;;5084863;28;20012;-72
2022/02/03 02:04:14;;;;;;;3.27;1.50;;;;;;;;;;5079107;28;20032;-72
2022/02/03 02:06:46;;;;;;;5.50;1.40;;;;;;;;;;5087403;28;20131;-72
2022/02/03 02:10:03;;;;;;;5.43;2.90;;;;;;;;;;5078030;28;20024;-72
2022/02/03 02:13:04;;;;;;;2.70;1.27;;;;;;;;;;5072100;28;20036;-72
2022/02/03 02:38:42;;;;;;;3.70;1.60;;;;;;;;;;5076913;28;20073;-72
2022/02/03 02:42:10;;;;;;;6.72;1.63;;;;;;;;;;5086205;28;20044;-73
2022/02/03 02:44:15;;;;;;;5.03;1.80;;;;;;;;;;5078491;28;20319;-71
2022/02/03 02:46:40;;;;;;;4.20;1.43;;;;;;;;;;5079089;28;20032;-72
2022/02/03 02:49:24;;;;;;;8.33;2.13;;;;;;;;;;5077314;28;20035;-74
2022/02/03 02:51:56;;;;;;;5.10;1.70;;;;;;;;;;5079988;28;20024;-72
2022/02/03 02:54:54;;;;;;;11.33;3.60;;;;;;;;;;5074455;28;20184;-72
2022/02/03 03:03:26;;;;;;;10.85;2.50;;;;;;;;;;5075485;28;20050;-78
2022/02/03 03:31:13;;;;;;;5.50;1.70;;;;;;;;;;5084123;28;20453;-78
2022/02/03 03:33:59;;;;;;;9.73;2.10;;;;;;;;;;5071401;28;20542;-74
2022/02/03 03:36:26;;;;;;;4.10;1.50;;;;;;;;;;5082984;28;20064;-79
2022/02/03 03:38:55;;;;;;;5.27;1.73;;;;;;;;;;5089572;28;20484;-78
2022/02/03 03:41:22;;;;;;;6.30;2.07;;;;;;;;;;5081604;28;20028;-77
2022/02/03 03:44:00;;;;;;;9.17;2.43;;;;;;;;;;5082344;28;20039;-75
2022/02/03 03:46:27;;;;;;;5.43;1.43;;;;;;;;;;5077753;28;20032;-77
2022/02/03 03:49:23;;;;;;;7.83;2.07;;;;;;;;;;5078895;28;20048;-75
2022/02/03 03:51:56;;;;;;;6.13;1.53;;;;;;;;;;5081428;28;20032;-78
2022/02/03 03:54:35;;;;;;;9.97;1.77;;;;;;;;;;5083377;28;20023;-77
2022/02/03 03:57:18;;;;;;;4.10;1.53;;;;;;;;;;5078564;28;20138;-78
2022/02/03 04:39:27;;;;;;;7.07;2.00;;;;;;;;;;5082459;28;20064;-74
2022/02/03 05:00:16;;;;;;;6.23;2.13;;;;;;;;;;5068938;28;20480;-77
2022/02/03 05:05:57;;;;;;;11.53;3.13;;;;;;;;;;5082620;28;20060;-77
2022/02/03 05:12:11;;;;;;;9.40;2.10;;;;;;;;;;5056620;28;20044;-77
2022/02/03 05:21:45;;;;;;;;;;;;;;;;;;5074976;28;20381;-77
2022/02/03 05:32:01;;;;;;;12.20;1.90;;;;;;;;;;5085566;28;20036;-76
2022/02/03 05:48:15;;;;;;;6.80;1.73;;;;;;;;;;5012104;28;20108;-78
2022/02/03 06:02:04;;;;;;;9.57;2.60;;;;;;;;;;5076396;28;20593;-77
2022/02/03 06:15:26;;;;;;;12.10;2.20;;;;;;;;;;5080986;28;20464;-78
2022/02/03 06:23:45;;;;;;;19.80;3.87;;;;;;;;;;5062971;28;20093;-76
2022/02/03 06:29:12;;;;;;;17.43;3.27;;;;;;;;;;5079803;28;20139;-76
2022/02/03 06:31:39;;;;;;;14.30;3.73;;;;;;;;;;5081167;28;20468;-77
2022/02/03 06:34:06;;;;;;;20.33;3.00;;;;;;;;;;5075408;28;20036;-77
2022/02/03 06:36:33;;;;;;;12.40;2.90;;;;;;;;;;5075342;28;20054;-79
2022/02/03 06:38:58;;;;;;;16.17;3.97;;;;;;;;;;5079707;28;20076;-78
2022/02/03 06:41:25;;;;;;;8.63;2.50;;;;;;;;;;5082332;28;20451;-78
2022/02/03 06:43:51;;;;;;;13.03;2.97;;;;;;;;;;5076149;28;20476;-76
2022/02/03 06:46:17;;;;;;;11.33;3.57;;;;;;;;;;5081402;28;20028;-78
2022/02/03 06:48:50;;;;;;;8.70;2.50;;;;;;;;;;5073734;28;20031;-77
2022/02/03 06:51:24;;;;;;;10.97;3.33;;;;;;;;;;5085511;28;20032;-75
2022/02/03 06:53:55;;;;;;;18.43;4.40;;;;;;;;;;5081942;28;20540;-77
2022/02/03 06:56:35;;;;;;;11.20;3.27;;;;;;;;;;5083383;28;20028;-76
2022/02/03 06:59:02;;;;;;;15.87;3.23;;;;;;;;;;5083843;28;20028;-77
2022/02/03 07:01:37;;;;;;;9.57;3.17;;;;;;;;;;5097920;28;20063;-79
2022/02/03 07:04:13;;;;;;;14.83;2.80;;;;;;;;;;5080198;28;20023;-78
2022/02/03 07:06:38;;;;;;;11.87;2.90;;;;;;;;;;5076866;28;20040;-79
2022/02/03 07:09:07;;;;;;;15.47;3.73;;;;;;;;;;5078196;28;20594;-77
2022/02/03 07:11:44;;;;;;;8.93;2.80;;;;;;;;;;5082064;28;20036;-80
2022/02/03 07:14:11;;;;;;;9.50;3.20;;;;;;;;;;5080956;28;20028;-78
2022/02/03 07:16:46;;;;;;;13.07;2.90;;;;;;;;;;5084076;28;20035;-79
2022/02/03 07:19:12;;;;;;;13.73;3.40;;;;;;;;;;5080158;28;20047;-79
2022/02/03 07:21:38;;;;;;;7.77;2.77;;;;;;;;;;5074985;28;20036;-77
2022/02/03 07:24:06;;;;;;;10.27;2.97;;;;;;;;;;5097552;28;20232;-77
2022/02/03 07:26:31;;;;;;;12.73;3.50;;;;;;;;;;5086783;28;20035;-78
2022/02/03 07:28:57;;;;;;;13.80;3.23;;;;;;;;;;5078742;28;20032;-78
2022/02/03 07:31:22;;;;;;;12.97;3.83;;;;;;;;;;5084657;28;20132;-79
2022/02/03 07:33:48;;;;;;;18.97;4.50;;;;;;;;;;5079862;28;20039;-78
2022/02/03 07:36:13;;;;;;;24.93;3.67;;;;;;;;;;5083852;28;20162;-77
2022/02/03 07:38:40;;;;;;;10.07;2.67;;;;;;;;;;5088401;28;20205;-76
2022/02/03 07:41:06;;;;;;;5.60;2.87;;;;;;;;;;5066775;28;20093;-74
2022/02/03 07:43:31;;;;;;;14.33;3.73;;;;;;;;;;5063805;28;20411;-74
2022/02/03 07:45:58;;;;;;;13.90;3.90;;;;;;;;;;5068872;28;20033;-78
2022/02/03 07:48:23;;;;;;;11.97;3.17;;;;;;;;;;5066142;28;20040;-77
2022/02/03 07:50:49;;;;;;;10.00;3.53;;;;;;;;;;5070755;28;20133;-75
2022/02/03 07:53:15;;;;;;;21.10;4.23;;;;;;;;;;5067466;28;20044;-76
2022/02/03 07:55:41;;;;;;;10.93;4.23;;;;;;;;;;5071061;28;20044;-80
2022/02/03 07:58:07;;;;;;;18.37;4.20;;;;;;;;;;5065348;28;20039;-79
2022/02/03 08:00:32;;;;;;;14.17;4.37;;;;;;;;;;5063234;28;20040;-74
2022/02/03 08:02:58;;;;;;;10.63;3.20;;;;;;;;;;5050772;28;20059;-75
2022/02/03 08:05:25;;;;;;;16.90;5.43;;;;;;;;;;5063768;28;20029;-77
2022/02/03 08:07:56;;;;;;;16.23;4.10;;;;;;;;;;5064198;28;20036;-74
2022/02/03 08:11:27;;;;;;;11.70;3.23;;;;;;;;;;5063443;28;20043;-77
2022/02/03 08:13:25;;;;;;;7.77;2.83;;;;;;;;;;5051536;28;20082;-76
2022/02/03 08:15:58;;;;;;;15.53;4.00;;;;;;;;;;5064211;28;20082;-75
2022/02/03 08:18:24;;;;;;;15.57;3.53;;;;;;;;;;5063020;28;20032;-74
2022/02/03 08:20:54;;;;;;;19.73;4.57;;;;;;;;;;5064622;28;20097;-76
2022/02/03 08:26:02;;;;;;;10.87;3.67;;;;;;;;;;5066997;28;20506;-76
2022/02/03 08:31:07;;;;;;;17.97;3.93;;;;;;;;;;5068015;28;20031;-73
2022/02/03 08:33:32;;;;;;;14.93;4.10;;;;;;;;;;5063376;28;20032;-77
2022/02/03 08:36:02;;;;;;;9.87;3.20;;;;;;;;;;5067652;28;20043;-75
2022/02/03 08:43:24;;;;;;;10.77;4.03;;;;;;;;;;5067191;28;20056;-73
2022/02/03 08:45:50;;;;;;;29.40;8.63;;;;;;;;;;5050373;28;20039;-75
2022/02/03 08:48:18;;;;;;;9.90;3.30;;;;;;;;;;5063855;28;20091;-76
2022/02/03 08:50:44;;;;;;;17.80;4.63;;;;;;;;;;5065864;28;20028;-77
2022/02/03 08:53:33;;;;;;;8.33;2.73;;;;;;;;;;5064952;28;20038;-76
2022/02/03 09:30:22;;;;;;;16.20;3.90;;;;;;;;;;5065804;28;20101;-77
2022/02/03 09:40:17;;;;;;;12.87;4.53;;;;;;;;;;5062673;28;20088;-74
2022/02/03 09:59:14;;;;;;;24.03;4.23;;;;;;;;;;5063720;28;20039;-77
2022/02/03 10:01:55;;;;;;;21.63;5.07;;;;;;;;;;5063518;28;20123;-75
2022/02/03 10:04:50;;;;;;;19.57;5.70;;;;;;;;;;5061973;28;20042;-76
2022/02/03 10:07:24;;;;;;;13.30;3.77;;;;;;;;;;5063775;28;20090;-79
2022/02/03 10:09:55;;;;;;;13.63;3.80;;;;;;;;;;5067221;28;20386;-78
2022/02/03 10:12:32;;;;;;;17.23;4.18;;;;;;;;;;5078356;28;20037;-76
2022/02/03 10:14:58;;;;;;;14.23;4.20;;;;;;;;;;5060622;28;20082;-74
2022/02/03 10:17:34;;;;;;;15.67;4.00;;;;;;;;;;5062594;28;20029;-76
2022/02/03 10:20:06;;;;;;;19.47;5.33;;;;;;;;;;5065693;28;20084;-75
2022/02/03 10:22:42;;;;;;;14.43;4.20;;;;;;;;;;5065148;28;20025;-76
2022/02/03 10:25:11;;;;;;;16.07;4.33;;;;;;;;;;5062725;28;20529;-78
2022/02/03 10:27:42;;;;;;;14.10;4.00;;;;;;;;;;5063671;28;20177;-73
2022/02/03 10:30:10;;;;;;;12.03;4.27;;;;;;;;;;5062623;28;21001;-76
2022/02/03 10:32:40;;;;;;;14.73;4.73;;;;;;;;;;5061906;28;20067;-74
2022/02/03 10:35:19;;;;;;;15.93;4.03;;;;;;;;;;5057706;28;20044;-74
2022/02/03 10:37:49;;;;;;;21.33;4.83;;;;;;;;;;5059947;28;20107;-72
2022/02/03 10:43:15;;;;;;;24.65;6.35;;;;;;;;;;5064295;28;20036;-76
2022/02/03 10:46:10;;;;;;;14.40;4.60;;;;;;;;;;5060014;28;20039;-76
2022/02/03 10:49:08;;;;;;;12.17;3.67;;;;;;;;;;5060909;28;20036;-74
2022/02/03 10:54:26;;;;;;;15.20;3.72;;;;;;;;;;5059774;28;20115;-74
2022/02/03 11:02:41;;;;;;;13.43;4.17;;;;;;;;;;5059993;28;20032;-78
2022/02/03 11:12:52;;;;;;;12.90;4.00;;;;;;;;;;5057211;28;20036;-77
2022/02/03 11:15:20;;;;;;;15.37;5.20;;;;;;;;;;5056166;28;20036;-80
2022/02/03 11:17:52;;;;;;;12.93;4.17;;;;;;;;;;5073803;28;20036;-77
2022/02/03 11:20:20;;;;;;;17.08;5.43;;;;;;;;;;5042181;28;20059;-77
2022/02/03 11:22:54;;;;;;;14.93;4.40;;;;;;;;;;5058064;28;20543;-78
2022/02/03 11:25:37;;;;;;;10.33;4.00;;;;;;;;;;5055964;28;20032;-78
2022/02/03 11:28:23;;;;;;;18.90;4.87;;;;;;;;;;5058619;28;20032;-78
2022/02/03 11:36:28;;;;;;;;;;;;;;;;;;5066785;28;20039;-78
2022/02/03 11:47:11;;;;;;;16.40;4.50;;;;;;;;;;5071726;28;20517;-78
2022/02/03 11:50:30;;;;;;;31.43;5.27;;;;;;;;;;5075255;28;20016;-78
2022/02/03 12:20:52;;;;;;;21.63;5.68;;;;;;;;;;5063031;28;20033;-76
2022/02/03 12:26:31;;;;;;;21.53;5.70;;;;;;;;;;5066611;28;20032;-75
2022/02/03 12:29:05;;;;;;;21.67;6.87;;;;;;;;;;5063154;28;20029;-74
2022/02/03 12:37:04;;;;;;;26.60;6.63;;;;;;;;;;5065180;28;20056;-76
2022/02/03 12:39:37;;;;;;;21.20;6.23;;;;;;;;;;5062928;28;20052;-79
2022/02/03 12:45:01;;;;;;;20.33;5.33;;;;;;;;;;5040254;28;20511;-79
2022/02/03 12:47:27;;;;;;;25.00;9.07;;;;;;;;;;5063927;28;20048;-76
2022/02/03 12:49:53;;;;;;;17.57;5.80;;;;;;;;;;5081554;28;20061;-74
2022/02/03 12:52:19;;;;;;;19.93;5.13;;;;;;;;;;5068218;28;20480;-75
2022/02/03 12:54:45;;;;;;;12.07;4.77;;;;;;;;;;5064483;28;20025;-75
2022/02/03 12:57:10;;;;;;;17.97;5.70;;;;;;;;;;5063263;28;20149;-73
2022/02/03 12:59:36;;;;;;;17.80;5.80;;;;;;;;;;5067441;28;20357;-79
2022/02/03 13:02:12;;;;;;;28.80;4.80;;;;;;;;;;5064504;28;20036;-75
2022/02/03 13:04:39;;;;;;;20.90;5.50;;;;;;;;;;5066493;28;20036;-74
2022/02/03 13:07:09;;;;;;;19.50;5.57;;;;;;;;;;5067698;28;20123;-75
2022/02/03 13:09:52;;;;;;;21.93;6.13;;;;;;;;;;5080311;28;20617;-77
2022/02/03 13:12:24;;;;;;;18.50;6.13;;;;;;;;;;5065175;28;20024;-77
2022/02/03 13:14:54;;;;;;;16.43;5.20;;;;;;;;;;5061465;28;20024;-76
2022/02/03 13:17:27;;;;;;;16.17;5.07;;;;;;;;;;5062264;28;20514;-79
2022/02/03 13:20:19;;;;;;;17.63;5.97;;;;;;;;;;5067468;28;20101;-76
2022/02/03 13:22:52;;;;;;;19.07;6.37;;;;;;;;;;5066675;28;20024;-74
2022/02/03 13:25:36;;;;;;;15.17;5.07;;;;;;;;;;5071183;28;20107;-78
2022/02/03 13:28:19;;;;;;;24.73;6.13;;;;;;;;;;5067072;28;20524;-78
2022/02/03 13:30:57;;;;;;;;;;;;;;;;;;5062469;28;20695;-77
2022/02/03 13:33:31;;;;;;;10.80;4.77;;;;;;;;;;5056634;28;20010;-78
2022/02/03 13:36:04;;;;;;;14.40;6.23;;;;;;;;;;5060281;28;20039;-77
2022/02/03 13:39:24;;;;;;;13.90;5.67;;;;;;;;;;5062891;28;20024;-76
2022/02/03 13:41:24;;;;;;;12.63;6.03;;;;;;;;;;5058086;28;20177;-75
2022/02/03 13:43:50;;;;;;;14.50;6.00;;;;;;;;;;5051168;28;20444;-77
2022/02/03 13:46:30;;;;;;;16.50;5.43;;;;;;;;;;5061811;28;20115;-77
2022/02/03 13:48:57;;;;;;;12.50;5.07;;;;;;;;;;5065251;28;20151;-77
2022/02/03 13:51:31;;;;;;;16.87;5.50;;;;;;;;;;5044220;28;20025;-75
2022/02/03 13:54:38;;;;;;;17.03;5.80;;;;;;;;;;5058691;28;20054;-76
2022/02/03 14:16:19;;;;;;;10.57;5.77;;;;;;;;;;5068030;28;20120;-77
2022/02/03 14:21:47;;;;;;;21.07;8.83;;;;;;;;;;5056538;28;20032;-76
2022/02/03 14:27:17;;;;;;;14.27;5.50;;;;;;;;;;5074179;28;20040;-78
2022/02/03 14:29:47;;;;;;;14.57;5.77;;;;;;;;;;5071505;28;20029;-77
2022/02/03 14:32:15;;;;;;;12.70;5.03;;;;;;;;;;5081816;28;20020;-77
2022/02/03 14:34:42;;;;;;;14.57;5.60;;;;;;;;;;5067608;28;20115;-77
2022/02/03 14:42:08;;;;;;;13.17;5.30;;;;;;;;;;5081197;28;20020;-78
2022/02/03 14:44:34;;;;;;;18.83;6.30;;;;;;;;;;5072701;28;20032;-76
2022/02/03 14:47:09;;;;;;;19.83;6.47;;;;;;;;;;5080270;28;20044;-78
2022/02/03 14:49:36;;;;;;;13.07;5.17;;;;;;;;;;5077214;28;20027;-79
2022/02/03 14:52:46;;;;;;;21.10;5.70;;;;;;;;;;5093450;28;20043;-77
2022/02/03 15:00:27;;;;;;;16.47;6.90;;;;;;;;;;5078158;28;20058;-76
2022/02/03 15:02:54;;;;;;;20.10;6.43;;;;;;;;;;5064500;28;20033;-77
2022/02/03 15:05:31;;;;;;;15.03;5.77;;;;;;;;;;5078295;28;20731;-76
2022/02/03 15:08:00;;;;;;;15.07;4.90;;;;;;;;;;5071542;28;20031;-78
2022/02/03 15:10:42;;;;;;;13.17;5.10;;;;;;;;;;5073623;28;20024;-77
2022/02/03 15:13:15;;;;;;;16.30;8.07;;;;;;;;;;5087340;28;20040;-78
2022/02/03 15:15:41;;;;;;;11.53;4.60;;;;;;;;;;5065736;28;20052;-77
2022/02/03 15:18:08;;;;;;;17.33;5.17;;;;;;;;;;5075561;28;20031;-78
2022/02/03 15:20:40;;;;;;;19.03;5.97;;;;;;;;;;5078595;28;20031;-77
2022/02/03 15:23:08;;;;;;;12.83;4.50;;;;;;;;;;5084832;28;20119;-77
2022/02/03 15:25:34;;;;;;;19.37;5.83;;;;;;;;;;5075590;28;20028;-78
2022/02/03 15:28:00;;;;;;;10.53;5.07;;;;;;;;;;5057414;28;20506;-79
2022/02/03 15:30:26;;;;;;;11.83;4.17;;;;;;;;;;5065933;28;20031;-78
2022/02/03 15:32:53;;;;;;;13.00;5.37;;;;;;;;;;5073638;28;20063;-76
2022/02/03 15:35:33;;;;;;;17.17;5.50;;;;;;;;;;5075003;28;20031;-77
2022/02/03 15:38:01;;;;;;;18.40;8.87;;;;;;;;;;5075423;28;20043;-76
2022/02/03 15:40:30;;;;;;;13.63;6.17;;;;;;;;;;5076977;28;20050;-77
2022/02/03 15:45:31;;;;;;;17.80;6.30;;;;;;;;;;5078800;28;20032;-78
2022/02/03 15:48:01;;;;;;;20.43;6.27;;;;;;;;;;5079455;28;20020;-75
2022/02/03 16:17:28;;;;;;;16.83;6.33;;;;;;;;;;5070592;28;20114;-78
2022/02/03 16:20:04;;;;;;;13.70;6.40;;;;;;;;;;5074309;28;20377;-76
2022/02/03 16:25:05;;;;;;;14.97;6.27;;;;;;;;;;5073810;28;20033;-77
2022/02/03 16:54:28;;;;;;;16.03;6.97;;;;;;;;;;5082136;28;20024;-78
2022/02/03 16:56:59;;;;;;;19.20;6.40;;;;;;;;;;5078943;28;20056;-78
2022/02/03 16:59:25;;;;;;;21.77;7.60;;;;;;;;;;5067992;28;20074;-77
2022/02/03 17:01:52;;;;;;;15.27;6.57;;;;;;;;;;5072964;28;20020;-77
2022/02/03 17:04:18;;;;;;;13.83;7.33;;;;;;;;;;5080994;28;20066;-75
2022/02/03 17:06:45;;;;;;;15.37;6.47;;;;;;;;;;5079228;28;20020;-78
2022/02/03 17:09:11;;;;;;;19.67;6.67;;;;;;;;;;5076352;28;20037;-77
2022/02/03 17:11:36;;;;;;;16.47;6.33;;;;;;;;;;5079683;28;20515;-76
2022/02/03 17:14:02;;;;;;;22.13;7.53;;;;;;;;;;5069510;28;20138;-78
2022/02/03 17:16:28;;;;;;;35.17;16.47;;;;;;;;;;5079712;28;20031;-78
2022/02/03 17:18:54;;;;;;;38.37;17.50;;;;;;;;;;5071843;28;20515;-76
2022/02/03 17:21:22;;;;;;;15.93;7.10;;;;;;;;;;5079340;28;20070;-78
2022/02/03 17:23:48;;;;;;;22.03;9.87;;;;;;;;;;5075346;28;20236;-76
2022/02/03 17:29:29;;;;;;;20.27;7.23;;;;;;;;;;5085897;28;20502;-78
2022/02/03 18:18:25;;;;;;;17.80;8.20;;;;;;;;;;5076613;28;20471;-77
2022/02/03 18:53:13;;;;;;;38.67;9.43;;;;;;;;;;5076352;28;20214;-78
2022/02/03 18:55:21;;;;;;;18.60;7.90;;;;;;;;;;5080896;28;20627;-76
2022/02/03 20:11:49;;;;;;;23.90;9.57;;;;;;;;;;5086691;28;20024;-77
2022/02/03 20:14:14;;;;;;;22.20;9.50;;;;;;;;;;5077237;28;20459;-79
2022/02/03 20:16:43;;;;;;;21.80;9.27;;;;;;;;;;5078525;28;20473;-77
2022/02/03 20:19:11;;;;;;;26.50;10.33;;;;;;;;;;5084757;28;20097;-77
2022/02/03 20:21:38;;;;;;;25.73;9.67;;;;;;;;;;5084487;28;20429;-76
2022/02/03 20:24:06;;;;;;;28.43;10.13;;;;;;;;;;5066440;28;20044;-77
2022/02/03 20:26:35;;;;;;;18.47;9.60;;;;;;;;;;5085884;28;20024;-78
2022/02/03 20:29:01;;;;;;;32.47;11.07;;;;;;;;;;5084210;28;20106;-77
2022/02/03 20:31:27;;;;;;;24.27;10.27;;;;;;;;;;5084747;28;20051;-77
2022/02/03 20:33:53;;;;;;;26.37;9.70;;;;;;;;;;5077814;28;20033;-78
2022/02/03 20:36:18;;;;;;;33.43;11.13;;;;;;;;;;5083657;28;20032;-79
2022/02/03 20:38:44;;;;;;;26.03;10.50;;;;;;;;;;5076594;28;20032;-77
2022/02/03 20:41:10;;;;;;;24.40;9.00;;;;;;;;;;5072700;28;20409;-77
2022/02/03 20:43:35;;;;;;;32.40;9.77;;;;;;;;;;5083352;28;20036;-78
2022/02/03 20:46:01;;;;;;;28.23;10.43;;;;;;;;;;5070101;28;20032;-79
2022/02/03 20:48:29;;;;;;;29.07;10.87;;;;;;;;;;5087621;28;20038;-78
2022/02/03 20:50:56;;;;;;;27.50;9.97;;;;;;;;;;5078751;28;20385;-78
2022/02/03 20:53:23;;;;;;;24.97;9.03;;;;;;;;;;5082796;28;20032;-77
2022/02/03 20:55:49;;;;;;;24.47;9.63;;;;;;;;;;5076585;28;20032;-77
2022/02/03 20:58:18;;;;;;;26.67;10.33;;;;;;;;;;5093308;28;20115;-77
2022/02/03 21:00:56;;;;;;;29.47;10.47;;;;;;;;;;5076544;28;20031;-76
2022/02/03 21:05:50;;;;;;;27.83;9.17;;;;;;;;;;5080153;28;20040;-77
2022/02/03 21:08:21;;;;;;;28.77;9.97;;;;;;;;;;5081085;28;20093;-77
2022/02/03 21:10:48;;;;;;;25.23;8.70;;;;;;;;;;5080406;28;20031;-72
2022/02/03 21:13:14;;;;;;;23.40;8.73;;;;;;;;;;5105656;28;20040;-76
2022/02/03 21:15:40;;;;;;;19.50;8.80;;;;;;;;;;5083448;28;20301;-76
2022/02/03 21:18:11;;;;;;;21.77;9.50;;;;;;;;;;5079881;28;20115;-76
2022/02/03 21:20:39;;;;;;;24.93;8.70;;;;;;;;;;5080318;28;20036;-78
2022/02/03 21:23:05;;;;;;;27.93;9.73;;;;;;;;;;5080422;28;20099;-78
2022/02/03 21:28:05;;;;;;;20.77;9.33;;;;;;;;;;5077397;28;20032;-77
2022/02/03 21:30:31;;;;;;;24.23;9.87;;;;;;;;;;5081004;28;20030;-78
2022/02/03 21:32:57;;;;;;;21.80;9.00;;;;;;;;;;5079549;28;20119;-74
2022/02/03 21:35:23;;;;;;;26.33;9.00;;;;;;;;;;5079101;28;20043;-77
2022/02/03 21:37:50;;;;;;;24.53;10.67;;;;;;;;;;5080365;28;20017;-77
2022/02/03 21:40:17;;;;;;;22.37;8.90;;;;;;;;;;5080425;28;20044;-79
2022/02/03 21:42:43;;;;;;;20.63;9.67;;;;;;;;;;5078740;28;20024;-76
2022/02/03 21:45:09;;;;;;;31.17;11.97;;;;;;;;;;5075415;28;20028;-78
2022/02/03 21:47:36;;;;;;;20.93;9.33;;;;;;;;;;5083426;28;20032;-77
2022/02/03 21:50:04;;;;;;;29.40;10.27;;;;;;;;;;5081321;28;20099;-77
2022/02/03 21:52:36;;;;;;;34.30;12.67;;;;;;;;;;5079889;28;20119;-78
2022/02/03 21:55:03;;;;;;;;;;;;;;;;;;5081059;28;20028;-77
2022/02/03 21:57:28;;;;;;;20.53;9.30;;;;;;;;;;5078490;28;19958;-77
2022/02/03 21:59:55;;;;;;;33.57;10.87;;;;;;;;;;5076915;28;20041;-78
2022/02/03 22:02:21;;;;;;;23.53;9.60;;;;;;;;;;5079679;28;20030;-77
2022/02/03 22:04:47;;;;;;;22.10;9.90;;;;;;;;;;5079310;28;20423;-77
2022/02/03 22:07:12;;;;;;;29.23;11.80;;;;;;;;;;5082536;28;20112;-75
2022/02/03 22:09:39;;;;;;;30.60;10.80;;;;;;;;;;5085978;28;20480;-76
2022/02/03 22:12:06;;;;;;;24.23;10.93;;;;;;;;;;5081629;28;20039;-77
2022/02/03 22:14:33;;;;;;;25.73;11.07;;;;;;;;;;5079982;28;20039;-77
2022/02/03 22:17:00;;;;;;;27.13;11.03;;;;;;;;;;5077265;28;20492;-76
2022/02/03 22:19:27;;;;;;;27.60;11.10;;;;;;;;;;5075429;28;20044;-78
2022/02/03 22:25:20;;;;;;;27.93;10.93;;;;;;;;;;5076256;28;20436;-76
2022/02/03 22:27:41;;;;;;;29.73;11.83;;;;;;;;;;5074830;28;20316;-77
2022/02/03 22:38:44;;;;;;;28.97;11.73;;;;;;;;;;5077467;28;20031;-77
2022/02/03 22:44:04;;;;;;;34.67;11.20;;;;;;;;;;5082048;28;20588;-77
2022/02/03 22:49:03;;;;;;;28.23;10.70;;;;;;;;;;5076405;28;20036;-76
2022/02/03 22:51:29;;;;;;;32.30;11.97;;;;;;;;;;5060940;28;20357;-75
2022/02/03 22:53:54;;;;;;;27.53;10.40;;;;;;;;;;5062216;28;20028;-80
2022/02/03 22:56:20;;;;;;;27.20;12.77;;;;;;;;;;5082549;28;20476;-78
2022/02/03 23:01:18;;;;;;;30.83;11.10;;;;;;;;;;5071779;28;20032;-77
2022/02/03 23:03:44;;;;;;;32.30;12.57;;;;;;;;;;5081981;28;20035;-77
2022/02/03 23:06:10;;;;;;;25.00;10.50;;;;;;;;;;5074059;28;20135;-75
2022/02/03 23:14:12;;;;;;;26.33;11.60;;;;;;;;;;5082628;28;20043;-77
2022/02/03 23:22:10;;;;;;;27.80;12.05;;;;;;;;;;5080266;28;20337;-77
2022/02/03 23:24:36;;;;;;;28.37;12.20;;;;;;;;;;5081080;28;20035;-78
2022/02/03 23:27:23;;;;;;;25.37;11.50;;;;;;;;;;5075253;28;20028;-76
2022/02/03 23:29:49;;;;;;;28.47;12.07;;;;;;;;;;5069486;28;20024;-78
2022/02/03 23:32:15;;;;;;;26.37;12.17;;;;;;;;;;5076873;28;20029;-77
2022/02/03 23:34:46;;;;;;;34.87;13.13;;;;;;;;;;5083810;28;20059;-76
2022/02/03 23:37:12;;;;;;;29.03;12.63;;;;;;;;;;5080332;28;20127;-77
2022/02/03 23:40:05;;;;;;;36.20;13.33;;;;;;;;;;5085661;28;20124;-76
